Time;durP1;ratioP1;P1;durP2;ratioP2;P2;SDS_P1;SDS_P2;PMS_P1;PMS_P2;Temp;Humidity;BMP_temperature;BMP_pressure;BME280_temperature;BME280_humidity;BME280_pressure;Samples;Min_cycle;Max_cycle;Signal;HPM_P1;HPM_P2
2021/01/18 00:01:20;;;;;;;7.00;4.70;;;;;;;2.33;100.00;96789.72;5076879;28;20539;-87
2021/01/18 00:03:47;;;;;;;10.23;5.70;;;;;;;2.37;100.00;96788.31;5076423;28;20996;-88
2021/01/18 00:06:15;;;;;;;8.73;5.30;;;;;;;2.34;100.00;96791.94;5076224;28;20864;-88
2021/01/18 00:08:43;;;;;;;8.10;5.20;;;;;;;2.42;100.00;96795.59;5075409;28;20445;-88
2021/01/18 00:11:10;;;;;;;9.10;6.13;;;;;;;2.37;100.00;96787.59;5075132;28;20483;-89
2021/01/18 00:13:36;;;;;;;10.20;5.77;;;;;;;2.31;100.00;96795.53;5075423;28;20409;-88
2021/01/18 00:16:03;;;;;;;8.63;4.43;;;;;;;2.39;100.00;96791.22;5074824;28;20579;-88
2021/01/18 00:18:30;;;;;;;8.63;5.33;;;;;;;2.43;100.00;96791.00;5075046;28;20460;-88
2021/01/18 00:20:56;;;;;;;8.60;4.63;;;;;;;2.33;100.00;96793.13;5075235;28;20430;-89
2021/01/18 00:23:23;;;;;;;9.33;5.43;;;;;;;2.26;100.00;96788.22;5075078;28;20445;-88
2021/01/18 00:25:50;;;;;;;7.90;4.77;;;;;;;2.17;100.00;96777.75;5075308;28;20822;-89
2021/01/18 00:28:17;;;;;;;13.00;6.00;;;;;;;2.16;100.00;96774.38;5074435;28;20512;-88
2021/01/18 00:30:44;;;;;;;8.80;5.40;;;;;;;2.19;100.00;96779.97;5074902;28;20441;-88
2021/01/18 00:33:10;;;;;;;9.63;5.80;;;;;;;2.27;100.00;96780.97;5074705;28;20426;-87
2021/01/18 00:35:37;;;;;;;10.80;5.00;;;;;;;2.30;100.00;96783.44;5074209;28;20482;-86
2021/01/18 00:38:03;;;;;;;9.60;5.10;;;;;;;2.25;100.00;96786.06;5074376;28;20429;-86
2021/01/18 00:40:29;;;;;;;8.40;5.13;;;;;;;2.15;100.00;96783.56;5074639;28;20452;-87
2021/01/18 00:42:57;;;;;;;8.23;4.53;;;;;;;2.27;100.00;96780.97;5074996;28;20457;-89
2021/01/18 00:45:24;;;;;;;7.90;5.03;;;;;;;2.32;100.00;96782.97;5074799;28;20452;-88
2021/01/18 00:47:52;;;;;;;8.70;4.83;;;;;;;2.35;100.00;96782.72;5075035;28;20445;-89
2021/01/18 00:50:20;;;;;;;6.93;5.47;;;;;;;2.26;100.00;96764.28;5074586;28;20445;-89
2021/01/18 00:52:48;;;;;;;9.33;5.40;;;;;;;2.25;100.00;96778.06;5075206;28;20452;-89
2021/01/18 00:55:17;;;;;;;6.80;4.57;;;;;;;2.19;100.00;96772.72;5074976;28;20421;-89
2021/01/18 00:57:44;;;;;;;9.87;5.13;;;;;;;2.27;100.00;96778.31;5074497;28;20865;-89
2021/01/18 01:00:14;;;;;;;6.63;4.50;;;;;;;2.26;100.00;96776.84;5074601;28;20442;-90
2021/01/18 01:02:41;;;;;;;7.90;4.93;;;;;;;2.28;100.00;96774.47;5074761;28;20787;-90
2021/01/18 01:05:10;;;;;;;10.30;4.40;;;;;;;2.25;100.00;96775.41;5074068;28;20438;-89
2021/01/18 01:07:37;;;;;;;6.80;4.63;;;;;;;2.12;100.00;96776.53;5074280;28;20473;-89
2021/01/18 01:10:05;;;;;;;7.93;5.23;;;;;;;2.16;100.00;96785.00;5074455;28;20479;-90
2021/01/18 01:12:32;;;;;;;8.77;4.83;;;;;;;2.19;100.00;96778.03;5074301;28;20437;-90
2021/01/18 01:14:58;;;;;;;9.20;5.20;;;;;;;2.07;100.00;96787.13;5074095;28;20934;-87
2021/01/18 01:17:26;;;;;;;6.23;4.57;;;;;;;1.99;100.00;96786.09;5073808;28;20510;-87
2021/01/18 01:19:52;;;;;;;7.93;4.67;;;;;;;2.02;100.00;96785.88;5074441;28;20525;-86
2021/01/18 01:22:18;;;;;;;5.37;4.60;;;;;;;1.95;100.00;96791.63;5073728;28;20430;-88
2021/01/18 01:24:45;;;;;;;7.10;4.50;;;;;;;1.98;100.00;96788.03;5074527;28;20825;-88
2021/01/18 01:27:11;;;;;;;12.40;5.43;;;;;;;1.91;100.00;96779.75;5074383;28;20484;-86
2021/01/18 01:29:38;;;;;;;7.13;4.50;;;;;;;1.83;100.00;96779.44;5075781;28;20416;-86
2021/01/18 01:32:04;;;;;;;5.80;4.47;;;;;;;1.90;100.00;96789.66;5098819;28;20469;-85
2021/01/18 01:34:33;;;;;;;8.67;4.80;;;;;;;1.94;100.00;96789.47;5098741;28;20406;-84
2021/01/18 01:36:59;;;;;;;7.17;4.73;;;;;;;1.97;100.00;96789.22;5098510;28;20536;-85
2021/01/18 01:39:26;;;;;;;6.40;4.60;;;;;;;1.87;100.00;96790.59;5092143;28;20438;-85
2021/01/18 01:41:52;;;;;;;7.00;4.33;;;;;;;1.87;100.00;96789.88;5073739;28;20449;-85
2021/01/18 01:44:18;;;;;;;6.80;4.57;;;;;;;1.96;100.00;96800.34;5073472;28;20956;-84
2021/01/18 01:46:45;;;;;;;6.50;3.90;;;;;;;1.94;100.00;96802.75;5073572;28;20966;-84
2021/01/18 01:49:12;;;;;;;6.90;4.83;;;;;;;1.94;100.00;96806.13;5073788;28;20437;-83
2021/01/18 01:51:39;;;;;;;9.57;4.53;;;;;;;1.99;100.00;96807.38;5073715;28;20453;-84
2021/01/18 01:54:06;;;;;;;10.83;5.07;;;;;;;2.08;100.00;96810.63;5073791;28;20445;-85
2021/01/18 01:56:33;;;;;;;6.20;4.27;;;;;;;2.07;100.00;96803.09;5073794;28;20547;-85
2021/01/18 01:59:00;;;;;;;6.60;4.47;;;;;;;2.05;100.00;96803.56;5073377;28;20440;-85
2021/01/18 02:01:26;;;;;;;6.77;4.07;;;;;;;2.02;100.00;96801.13;5073196;28;20887;-85
2021/01/18 02:03:57;;;;;;;7.23;4.60;;;;;;;2.04;100.00;96798.72;5073378;28;20430;-85
2021/01/18 02:06:23;;;;;;;7.07;4.40;;;;;;;2.11;100.00;96809.66;5073425;28;20454;-85
2021/01/18 02:08:51;;;;;;;8.27;4.60;;;;;;;2.03;100.00;96816.63;5073464;28;20575;-85
2021/01/18 02:11:18;;;;;;;6.80;4.33;;;;;;;2.09;100.00;96806.75;5073486;28;20472;-85
2021/01/18 02:13:58;;;;;;;6.40;4.60;;;;;;;2.12;100.00;96810.41;5073560;28;20540;-85
2021/01/18 02:16:28;;;;;;;8.43;4.13;;;;;;;2.16;100.00;96818.91;5073396;28;20491;-84
2021/01/18 02:19:11;;;;;;;7.00;3.97;;;;;;;2.14;100.00;96813.31;5076801;28;20499;-85
2021/01/18 02:22:25;;;;;;;6.77;4.57;;;;;;;2.15;100.00;96820.09;5077054;28;20422;-85
2021/01/18 02:25:18;;;;;;;6.90;4.40;;;;;;;2.10;100.00;96824.16;5038319;28;20454;-84
2021/01/18 02:28:21;;;;;;;7.00;4.30;;;;;;;2.17;100.00;96826.41;5076756;28;20410;-84
2021/01/18 02:31:20;;;;;;;7.70;4.70;;;;;;;2.13;100.00;96825.88;5076924;28;20884;-84
2021/01/18 02:34:25;;;;;;;9.73;4.00;;;;;;;2.21;100.00;96831.53;5077084;28;20907;-84
2021/01/18 02:37:03;;;;;;;8.97;4.80;;;;;;;2.16;100.00;96832.22;5076909;28;20537;-84
2021/01/18 02:39:44;;;;;;;7.13;4.80;;;;;;;2.15;100.00;96839.47;5101490;28;20409;-85
2021/01/18 02:42:14;;;;;;;10.00;5.63;;;;;;;2.10;100.00;96840.13;5101457;28;20414;-86
2021/01/18 02:44:41;;;;;;;7.60;4.70;;;;;;;2.12;100.00;96842.34;5093885;28;20450;-85
2021/01/18 02:47:09;;;;;;;8.10;5.37;;;;;;;2.19;100.00;96844.59;5076235;28;20463;-84
2021/01/18 02:49:37;;;;;;;7.10;5.17;;;;;;;2.23;100.00;96841.69;5076559;28;20476;-84
2021/01/18 02:52:09;;;;;;;6.97;4.87;;;;;;;2.25;100.00;96837.38;5076611;28;20426;-85
2021/01/18 02:54:36;;;;;;;7.43;4.83;;;;;;;2.22;100.00;96837.56;5076565;28;20519;-84
2021/01/18 02:57:05;;;;;;;7.30;4.37;;;;;;;2.20;100.00;96829.31;5076220;28;20997;-84
2021/01/18 02:59:32;;;;;;;7.47;4.93;;;;;;;2.19;100.00;96831.28;5076251;28;20795;-85
2021/01/18 03:02:15;;;;;;;8.50;5.17;;;;;;;2.28;100.00;96831.09;5076080;28;20909;-84
2021/01/18 03:05:03;;;;;;;8.53;4.63;;;;;;;2.22;100.00;96826.94;5076140;28;20491;-84
2021/01/18 03:07:35;;;;;;;8.03;4.80;;;;;;;2.31;100.00;96834.75;5076292;28;20992;-84
2021/01/18 03:10:06;;;;;;;5.67;4.70;;;;;;;2.29;100.00;96832.53;5075654;28;20414;-84
2021/01/18 03:12:48;;;;;;;7.57;4.83;;;;;;;2.32;100.00;96828.22;5076462;28;20917;-84
2021/01/18 03:15:16;;;;;;;6.90;4.90;;;;;;;2.36;100.00;96834.03;5075706;28;20460;-85
2021/01/18 03:17:45;;;;;;;6.57;4.60;;;;;;;2.23;100.00;96834.44;5076322;28;20438;-84
2021/01/18 03:20:13;;;;;;;9.93;5.50;;;;;;;2.22;100.00;96838.31;5075977;28;20445;-84
2021/01/18 03:22:41;;;;;;;9.87;6.33;;;;;;;2.25;100.00;96834.72;5075829;28;20438;-84
2021/01/18 03:25:09;;;;;;;8.30;5.73;;;;;;;2.26;100.00;96838.81;5076047;28;20516;-85
2021/01/18 03:27:50;;;;;;;10.90;6.07;;;;;;;2.24;100.00;96827.19;5075810;28;20480;-84
2021/01/18 03:30:19;;;;;;;9.80;6.37;;;;;;;2.24;100.00;96837.81;5075658;28;20458;-84
2021/01/18 03:32:48;;;;;;;10.07;6.43;;;;;;;2.32;100.00;96836.22;5076127;28;20902;-84
2021/01/18 03:35:15;;;;;;;11.00;6.93;;;;;;;2.28;100.00;96833.75;5075991;28;20815;-84
2021/01/18 03:37:42;;;;;;;9.07;6.20;;;;;;;2.32;100.00;96833.56;5077531;28;20434;-85
2021/01/18 03:40:09;;;;;;;9.53;6.43;;;;;;;2.34;100.00;96831.88;5077630;28;20478;-84
2021/01/18 03:42:36;;;;;;;13.43;6.43;;;;;;;2.25;100.00;96828.66;5084484;28;20501;-83
2021/01/18 03:45:03;;;;;;;11.00;6.90;;;;;;;2.22;100.00;96829.59;5082056;28;20447;-84
2021/01/18 03:47:34;;;;;;;11.00;6.97;;;;;;;2.16;100.00;96827.59;5075789;28;20542;-84
2021/01/18 03:50:00;;;;;;;12.53;8.20;;;;;;;2.25;100.00;96826.00;5077618;28;20445;-84
2021/01/18 03:52:26;;;;;;;12.27;6.67;;;;;;;2.26;100.00;96819.44;5075597;28;20475;-84
2021/01/18 03:54:53;;;;;;;10.37;6.90;;;;;;;2.26;100.00;96824.75;5075335;28;20459;-84
2021/01/18 03:57:20;;;;;;;12.00;6.90;;;;;;;2.12;100.00;96821.78;5075203;28;20488;-84
2021/01/18 03:59:46;;;;;;;11.40;7.50;;;;;;;2.19;100.00;96827.88;5075143;28;20448;-84
2021/01/18 04:02:13;;;;;;;15.97;7.73;;;;;;;2.14;100.00;96824.69;5075958;28;20926;-84
2021/01/18 04:04:41;;;;;;;13.23;7.13;;;;;;;2.20;100.00;96831.97;5075020;28;20449;-84
2021/01/18 04:07:10;;;;;;;10.93;6.60;;;;;;;2.19;100.00;96833.19;5074825;28;20462;-85
2021/01/18 04:09:36;;;;;;;14.83;7.67;;;;;;;2.06;100.00;96834.31;5075445;28;20452;-85
2021/01/18 04:12:04;;;;;;;12.03;6.77;;;;;;;2.20;100.00;96837.31;5074788;28;20450;-85
2021/01/18 04:14:31;;;;;;;11.77;7.00;;;;;;;2.16;100.00;96835.59;5074965;28;20457;-85
2021/01/18 04:16:57;;;;;;;13.90;7.73;;;;;;;2.24;100.00;96840.50;5074666;28;20861;-85
2021/01/18 04:19:24;;;;;;;12.30;8.53;;;;;;;2.29;100.00;96834.50;5075937;28;20450;-84
2021/01/18 04:21:50;;;;;;;11.80;7.80;;;;;;;2.21;100.00;96828.84;5075486;28;20540;-84
2021/01/18 04:24:16;;;;;;;15.33;7.80;;;;;;;2.24;100.00;96835.91;5075021;28;20461;-84
2021/01/18 04:26:43;;;;;;;18.13;8.10;;;;;;;2.22;100.00;96837.56;5074685;28;20450;-84
2021/01/18 04:29:10;;;;;;;12.97;7.37;;;;;;;2.15;100.00;96842.13;5075045;28;20441;-84
2021/01/18 04:31:40;;;;;;;16.43;7.57;;;;;;;2.19;100.00;96841.19;5094734;28;20445;-85
2021/01/18 04:34:06;;;;;;;12.80;8.17;;;;;;;2.12;100.00;96845.72;5099307;28;20437;-85
2021/01/18 04:36:37;;;;;;;19.33;8.43;;;;;;;2.07;100.00;96846.41;5099255;28;20469;-85
2021/01/18 04:39:04;;;;;;;14.67;7.83;;;;;;;2.12;100.00;96845.72;5099219;28;20421;-85
2021/01/18 04:41:31;;;;;;;11.93;8.10;;;;;;;1.99;100.00;96852.63;5073621;28;20441;-84
2021/01/18 04:43:59;;;;;;;12.03;7.73;;;;;;;2.04;100.00;96844.69;5074440;28;20832;-84
2021/01/18 04:46:30;;;;;;;12.10;7.13;;;;;;;2.14;100.00;96855.91;5074468;28;20465;-86
2021/01/18 04:48:59;;;;;;;14.10;7.80;;;;;;;2.26;100.00;96846.06;5074537;28;20893;-85
2021/01/18 04:51:27;;;;;;;13.10;7.23;;;;;;;2.20;99.62;96853.28;5074414;28;20461;-84
2021/01/18 04:53:57;;;;;;;9.97;6.90;;;;;;;2.19;99.18;96851.81;5074200;28;20517;-84
2021/01/18 04:56:37;;;;;;;10.03;6.23;;;;;;;2.18;99.57;96856.41;5074551;28;20581;-85
2021/01/18 04:59:06;;;;;;;13.37;7.57;;;;;;;2.11;99.64;96870.13;5074307;28;20433;-85
2021/01/18 05:01:41;;;;;;;11.00;6.90;;;;;;;2.09;99.17;96857.31;5074530;28;20529;-84
2021/01/18 05:04:27;;;;;;;18.20;8.03;;;;;;;2.01;99.19;96866.19;5074275;28;20429;-84
2021/01/18 05:06:59;;;;;;;14.77;7.27;;;;;;;2.03;99.76;96861.88;5074097;28;20465;-84
2021/01/18 05:09:30;;;;;;;18.43;6.77;;;;;;;2.03;99.63;96858.47;5074023;28;20425;-85
2021/01/18 05:11:58;;;;;;;11.83;7.03;;;;;;;2.02;99.64;96857.72;5074432;28;20438;-85
2021/01/18 05:14:25;;;;;;;16.23;7.90;;;;;;;1.97;99.89;96855.03;5074691;28;20540;-84
2021/01/18 05:16:54;;;;;;;12.90;7.70;;;;;;;1.88;100.00;96857.84;5074296;28;20481;-85
2021/01/18 05:19:22;;;;;;;14.83;7.87;;;;;;;1.81;100.00;96860.91;5074985;28;20528;-84
2021/01/18 05:21:50;;;;;;;14.07;7.73;;;;;;;1.77;100.00;96863.78;5074683;28;20536;-84
2021/01/18 05:24:18;;;;;;;16.87;7.90;;;;;;;1.72;100.00;96863.72;5074417;28;20452;-84
2021/01/18 05:27:01;;;;;;;11.67;6.70;;;;;;;1.78;100.00;96870.56;5074653;28;20461;-84
2021/01/18 05:29:30;;;;;;;9.37;7.03;;;;;;;1.76;100.00;96874.88;5074562;28;20457;-85
2021/01/18 05:31:57;;;;;;;12.53;7.10;;;;;;;1.81;99.91;96872.28;5074566;28;20426;-84
2021/01/18 05:34:27;;;;;;;16.30;7.33;;;;;;;1.77;100.00;96881.66;5074743;28;20452;-84
2021/01/18 05:36:53;;;;;;;15.70;7.57;;;;;;;1.79;99.72;96871.28;5075354;28;20481;-84
2021/01/18 05:39:21;;;;;;;23.50;8.70;;;;;;;1.82;100.00;96876.41;5074923;28;20429;-85
2021/01/18 05:41:49;;;;;;;14.80;6.80;;;;;;;1.80;99.87;96865.50;5074851;28;20456;-84
2021/01/18 05:44:17;;;;;;;12.10;6.63;;;;;;;1.79;99.61;96871.28;5074108;28;20445;-85
2021/01/18 05:46:44;;;;;;;17.40;7.80;;;;;;;1.82;99.58;96875.66;5074592;28;20457;-84
2021/01/18 05:49:14;;;;;;;13.57;7.47;;;;;;;1.72;99.63;96880.41;5074671;28;20512;-85
2021/01/18 05:51:41;;;;;;;9.60;6.20;;;;;;;1.79;100.00;96887.97;5075222;28;20813;-85
2021/01/18 05:54:11;;;;;;;15.60;6.67;;;;;;;1.77;99.97;96894.97;5078022;28;20455;-85
2021/01/18 05:56:39;;;;;;;9.60;6.00;;;;;;;1.74;99.44;96898.56;5077904;28;20477;-85
2021/01/18 05:59:20;;;;;;;13.03;6.63;;;;;;;1.81;99.59;96898.16;5078168;28;20502;-85
2021/01/18 06:01:48;;;;;;;14.37;7.17;;;;;;;1.83;99.32;96895.75;5078282;28;20424;-84
2021/01/18 06:04:17;;;;;;;11.07;7.90;;;;;;;1.84;99.41;96899.88;5078558;28;20441;-85
2021/01/18 06:06:52;;;;;;;22.27;7.50;;;;;;;1.81;99.36;96898.88;5078154;28;20446;-84
2021/01/18 06:09:18;;;;;;;12.87;6.77;;;;;;;1.76;99.39;96907.53;5078329;28;20439;-84
2021/01/18 06:11:45;;;;;;;11.73;7.60;;;;;;;1.75;99.91;96906.09;5078231;28;20472;-85
2021/01/18 06:14:11;;;;;;;12.97;6.63;;;;;;;1.83;99.53;96907.13;5078670;28;20456;-85
2021/01/18 06:16:39;;;;;;;15.47;8.33;;;;;;;1.77;100.00;96919.63;5078188;28;20481;-84
2021/01/18 06:19:08;;;;;;;14.50;7.60;;;;;;;1.84;100.00;96923.81;5078506;28;20425;-84
2021/01/18 06:21:37;;;;;;;9.97;6.80;;;;;;;1.84;100.00;96924.56;5078351;28;20946;-85
2021/01/18 06:24:25;;;;;;;11.57;7.47;;;;;;;1.90;100.00;96928.00;5079241;28;20516;-85
2021/01/18 06:26:52;;;;;;;12.27;6.90;;;;;;;1.90;100.00;96925.34;5078729;28;20449;-85
2021/01/18 06:29:39;;;;;;;17.47;7.70;;;;;;;1.98;100.00;96926.38;5078785;28;20480;-85
2021/01/18 06:32:07;;;;;;;26.73;12.00;;;;;;;1.92;99.95;96928.25;5078172;28;20482;-85
2021/01/18 06:34:34;;;;;;;16.93;7.17;;;;;;;1.98;100.00;96928.31;5079488;28;20992;-84
2021/01/18 06:37:01;;;;;;;19.10;8.40;;;;;;;1.96;100.00;96936.78;5082683;28;20491;-85
2021/01/18 06:39:30;;;;;;;10.60;7.13;;;;;;;1.93;100.00;96935.06;5078529;28;20441;-84
2021/01/18 06:42:01;;;;;;;13.43;6.97;;;;;;;1.95;100.00;96935.31;5079769;28;20429;-85
2021/01/18 06:44:38;;;;;;;18.53;7.13;;;;;;;1.93;99.96;96935.06;5096858;28;20445;-84
2021/01/18 06:47:33;;;;;;;13.57;8.70;;;;;;;1.95;99.51;96926.59;5080680;28;21061;-84
2021/01/18 06:50:01;;;;;;;11.53;5.70;;;;;;;1.98;99.29;96929.03;5043399;28;20450;-91
2021/01/18 06:52:30;;;;;;;15.03;6.70;;;;;;;1.91;99.03;96934.06;5079675;28;20483;-88
2021/01/18 06:55:02;;;;;;;17.77;7.27;;;;;;;1.88;99.35;96929.69;5079164;28;20481;-88
2021/01/18 06:57:56;;;;;;;20.47;6.67;;;;;;;1.90;99.10;96935.25;5078150;28;20579;-89
2021/01/18 07:00:23;;;;;;;13.60;7.43;;;;;;;1.83;99.02;96938.31;5078820;28;20507;-88
2021/01/18 07:02:55;;;;;;;12.97;6.23;;;;;;;1.86;99.11;96943.44;5079852;28;20445;-88
2021/01/18 07:05:37;;;;;;;14.97;6.47;;;;;;;1.90;99.45;96937.91;5079510;28;20426;-89
2021/01/18 07:08:16;;;;;;;18.80;6.83;;;;;;;1.86;99.24;96932.06;5080803;28;20448;-89
2021/01/18 07:10:46;;;;;;;10.37;6.03;;;;;;;1.92;99.03;96938.16;5079045;28;20498;-88
2021/01/18 07:13:13;;;;;;;13.07;7.50;;;;;;;1.91;98.44;96944.69;5078773;28;20453;-89
2021/01/18 07:15:42;;;;;;;14.87;7.00;;;;;;;1.80;98.60;96955.94;5078765;28;20469;-90
2021/01/18 07:18:10;;;;;;;15.70;7.23;;;;;;;1.89;99.05;96955.06;5079504;28;20453;-89
2021/01/18 07:20:44;;;;;;;14.70;6.03;;;;;;;2.15;98.31;96966.47;5079686;28;20437;-87
2021/01/18 07:23:32;;;;;;;12.57;6.77;;;;;;;2.30;97.63;96975.09;5079747;28;20433;-88
2021/01/18 07:26:30;;;;;;;16.10;7.10;;;;;;;2.27;96.92;96975.31;5079777;28;20465;-88
2021/01/18 07:29:02;;;;;;;12.40;6.87;;;;;;;2.19;97.16;96974.25;5079399;28;20445;-89
2021/01/18 07:31:29;;;;;;;10.73;6.07;;;;;;;2.22;96.65;96976.72;5079429;28;20436;-89
2021/01/18 07:33:56;;;;;;;10.60;5.63;;;;;;;2.37;95.52;96984.59;5094906;28;20524;-87
2021/01/18 07:36:24;;;;;;;7.50;5.33;;;;;;;2.35;95.52;96984.34;5099850;28;20540;-87
2021/01/18 07:38:51;;;;;;;8.33;5.50;;;;;;;2.37;95.50;96988.00;5099928;28;20413;-87
2021/01/18 07:41:20;;;;;;;16.67;5.93;;;;;;;2.40;95.48;96987.06;5099783;28;20422;-87
2021/01/18 07:43:48;;;;;;;14.10;4.63;;;;;;;2.51;95.37;96986.41;5080471;28;20449;-89
2021/01/18 07:46:37;;;;;;;9.33;5.90;;;;;;;2.45;95.41;96994.38;5077603;28;20454;-87
2021/01/18 07:49:42;;;;;;;11.67;6.20;;;;;;;2.62;94.71;96999.84;5077162;28;20928;-89
2021/01/18 07:52:19;;;;;;;10.13;5.87;;;;;;;2.78;94.26;96995.88;5077271;28;20448;-89
2021/01/18 07:54:46;;;;;;;10.13;5.37;;;;;;;2.67;93.32;96999.91;5077983;28;20464;-90
2021/01/18 07:57:33;;;;;;;14.27;5.73;;;;;;;2.65;94.25;97004.25;5079218;28;20496;-89
2021/01/18 08:00:27;;;;;;;8.90;5.37;;;;;;;2.62;93.67;97005.19;5078556;28;20520;-89
2021/01/18 08:03:18;;;;;;;12.70;7.20;;;;;;;2.58;94.54;97012.66;5067163;28;20456;-90
2021/01/18 08:05:45;;;;;;;10.00;5.60;;;;;;;2.61;93.54;97014.38;5078888;28;20504;-89
2021/01/18 08:08:13;;;;;;;10.50;5.90;;;;;;;2.62;94.56;97015.84;5077701;28;20501;-90
2021/01/18 08:11:13;;;;;;;11.67;6.37;;;;;;;2.56;94.30;97013.13;5078812;28;20490;-90
2021/01/18 08:13:48;;;;;;;12.03;5.30;;;;;;;2.54;94.19;97014.78;5045423;28;20453;-89
2021/01/18 08:16:20;;;;;;;5.63;3.93;;;;;;;2.61;94.14;97014.38;5078059;28;20468;-90
2021/01/18 08:19:01;;;;;;;9.50;5.30;;;;;;;2.60;93.87;97013.63;5078183;28;20437;-89
2021/01/18 08:22:04;;;;;;;7.07;4.57;;;;;;;2.70;94.05;97019.53;5077139;28;20465;-89
2021/01/18 08:24:53;;;;;;;8.37;5.27;;;;;;;2.74;93.31;97012.06;5077530;28;20558;-89
2021/01/18 08:27:46;;;;;;;14.20;6.37;;;;;;;2.75;93.54;97013.53;5077102;28;20454;-90
2021/01/18 08:30:41;;;;;;;15.43;5.43;;;;;;;2.81;93.39;97014.31;5079211;28;20448;-90
2021/01/18 08:33:09;;;;;;;14.40;6.80;;;;;;;2.89;93.01;97023.34;5055229;28;20832;-90
2021/01/18 08:35:49;;;;;;;8.63;5.70;;;;;;;2.81;93.40;97024.97;5078073;28;20474;-90
2021/01/18 08:38:30;;;;;;;10.43;4.80;;;;;;;2.83;93.65;97024.50;5077877;28;20445;-89
2021/01/18 08:41:06;;;;;;;11.27;5.87;;;;;;;2.78;93.63;97028.59;5079467;28;20477;-90
2021/01/18 08:43:48;;;;;;;10.90;6.10;;;;;;;2.84;93.49;97023.31;5076792;28;20433;-87
2021/01/18 08:46:31;;;;;;;10.33;6.30;;;;;;;2.80;93.67;97022.78;5076975;28;20483;-88
2021/01/18 08:49:22;;;;;;;14.00;6.40;;;;;;;2.76;93.34;97022.97;5078089;28;20818;-89
2021/01/18 08:51:49;;;;;;;8.60;4.63;;;;;;;2.74;93.63;97024.66;5068254;28;20444;-84
2021/01/18 08:54:29;;;;;;;10.60;4.53;;;;;;;2.69;93.96;97026.78;5089489;28;20426;-84
2021/01/18 08:57:21;;;;;;;13.30;5.03;;;;;;;2.75;93.74;97028.78;5096744;28;20477;-86
2021/01/18 09:00:00;;;;;;;8.53;5.43;;;;;;;2.81;93.64;97032.22;5096271;28;20426;-86
2021/01/18 09:02:27;;;;;;;12.60;5.73;;;;;;;2.86;93.83;97026.94;5078225;28;20418;-89
2021/01/18 09:04:53;;;;;;;11.40;5.93;;;;;;;2.88;93.44;97029.16;5076821;28;20433;-88
2021/01/18 09:07:20;;;;;;;8.87;4.50;;;;;;;2.88;93.62;97026.50;5076796;28;20484;-89
2021/01/18 09:09:46;;;;;;;8.03;4.20;;;;;;;2.99;93.47;97027.31;5077870;28;21024;-89
2021/01/18 09:12:15;;;;;;;9.20;5.47;;;;;;;3.04;93.51;97031.94;5078020;28;20472;-89
2021/01/18 09:14:41;;;;;;;8.43;4.23;;;;;;;3.14;93.19;97029.84;5076648;28;20465;-91
2021/01/18 09:17:09;;;;;;;10.00;4.50;;;;;;;3.17;93.03;97034.22;5078317;28;20481;-90
2021/01/18 09:19:51;;;;;;;8.07;4.43;;;;;;;3.27;92.05;97037.44;5078120;28;20429;-91
2021/01/18 09:22:20;;;;;;;9.80;4.40;;;;;;;3.20;91.80;97033.28;5077645;28;20430;-90
2021/01/18 09:24:48;;;;;;;5.30;3.90;;;;;;;3.26;91.83;97036.69;5076939;28;20433;-89
2021/01/18 09:27:16;;;;;;;10.93;4.30;;;;;;;3.39;91.09;97025.63;5078854;28;20473;-91
2021/01/18 09:29:42;;;;;;;9.27;4.53;;;;;;;3.48;90.23;97033.47;5080540;28;20433;-89
2021/01/18 09:32:10;;;;;;;8.07;4.27;;;;;;;3.33;90.99;97040.88;5087137;28;20441;-88
2021/01/18 09:34:36;;;;;;;7.23;5.13;;;;;;;3.29;91.68;97043.06;5084014;28;20879;-89
2021/01/18 09:37:06;;;;;;;13.70;4.87;;;;;;;3.34;91.67;97027.09;5092045;28;20571;-88
2021/01/18 09:39:32;;;;;;;10.60;5.20;;;;;;;3.32;92.16;97044.78;5080998;28;20434;-86
2021/01/18 09:42:00;;;;;;;21.10;8.20;;;;;;;3.31;92.24;97043.28;5079251;28;20434;-85
2021/01/18 09:44:27;;;;;;;8.57;6.03;;;;;;;3.28;92.16;97047.66;5078915;28;20441;-88
2021/01/18 09:46:55;;;;;;;7.50;4.13;;;;;;;3.33;91.54;97038.94;5079579;28;20878;-86
2021/01/18 09:49:25;;;;;;;10.73;5.60;;;;;;;3.38;91.70;97037.53;5080479;28;20447;-89
2021/01/18 09:51:52;;;;;;;9.87;5.47;;;;;;;3.40;91.84;97033.19;5080131;28;20430;-89
2021/01/18 09:54:18;;;;;;;10.10;4.90;;;;;;;3.47;91.93;97040.03;5079933;28;20854;-88
2021/01/18 09:56:45;;;;;;;10.10;5.73;;;;;;;3.50;92.04;97039.06;5079347;28;20900;-88
2021/01/18 09:59:15;;;;;;;13.23;5.60;;;;;;;3.58;92.00;97043.47;5089026;28;20410;-86
2021/01/18 10:01:45;;;;;;;20.30;5.77;;;;;;;3.64;91.63;97030.91;5097169;28;20434;-85
2021/01/18 10:04:21;;;;;;;12.03;5.67;;;;;;;3.59;92.61;97031.59;5078079;28;20543;-86
2021/01/18 10:06:50;;;;;;;7.03;3.93;;;;;;;3.75;91.78;97028.31;5081602;28;20456;-85
2021/01/18 10:09:21;;;;;;;7.20;4.97;;;;;;;3.69;91.80;97030.22;5079055;28;20437;-86
2021/01/18 10:11:49;;;;;;;12.37;5.93;;;;;;;3.73;92.07;97027.31;5078714;28;20445;-87
2021/01/18 10:14:21;;;;;;;6.80;4.20;;;;;;;3.63;92.29;97018.75;5086639;28;20475;-88
2021/01/18 10:16:58;;;;;;;6.83;4.87;;;;;;;3.61;91.88;97018.50;5080413;28;20489;-87
2021/01/18 10:19:24;;;;;;;8.50;4.30;;;;;;;3.58;92.09;97016.78;5080107;28;20433;-86
2021/01/18 10:21:53;;;;;;;6.33;4.20;;;;;;;3.75;91.20;97019.56;5078863;28;20434;-86
2021/01/18 10:24:27;;;;;;;7.40;4.17;;;;;;;3.70;90.48;97010.31;5078356;28;20548;-89
2021/01/18 10:27:01;;;;;;;5.43;3.87;;;;;;;3.74;91.22;97007.41;5080005;28;20459;-89
2021/01/18 10:29:29;;;;;;;4.63;3.27;;;;;;;3.62;89.98;96998.63;5078878;28;20555;-89
2021/01/18 10:31:55;;;;;;;5.40;3.70;;;;;;;3.69;90.57;97005.47;5093196;28;20429;-87
2021/01/18 10:34:29;;;;;;;10.83;4.43;;;;;;;3.72;90.43;97004.50;5100814;28;20489;-86
2021/01/18 10:36:57;;;;;;;6.57;4.00;;;;;;;3.82;90.63;96997.03;5100698;28;20492;-86
2021/01/18 10:39:29;;;;;;;6.33;5.30;;;;;;;3.88;90.11;96995.84;5098544;28;20442;-88
2021/01/18 10:42:03;;;;;;;6.70;4.27;;;;;;;4.01;89.81;96998.78;5078925;28;20501;-88
2021/01/18 10:44:29;;;;;;;11.20;4.33;;;;;;;3.96;89.91;96994.19;5079504;28;20428;-88
2021/01/18 10:46:56;;;;;;;9.20;4.27;;;;;;;3.90;90.21;96998.75;5078599;28;20525;-88
2021/01/18 10:49:27;;;;;;;5.17;4.30;;;;;;;3.90;90.51;96996.09;5078699;28;20949;-89
2021/01/18 10:52:09;;;;;;;8.50;4.53;;;;;;;4.08;89.89;96993.00;5078548;28;20457;-88
2021/01/18 10:54:36;;;;;;;4.17;3.60;;;;;;;4.12;89.63;96993.50;5079533;28;20429;-89
2021/01/18 10:57:18;;;;;;;5.17;4.23;;;;;;;4.21;89.38;96993.28;5079293;28;20485;-89
2021/01/18 10:59:45;;;;;;;10.20;4.10;;;;;;;4.31;88.77;96999.16;5078775;28;20433;-87
2021/01/18 11:02:14;;;;;;;13.40;5.83;;;;;;;4.30;88.86;96997.69;5078114;28;20417;-85
2021/01/18 11:04:45;;;;;;;8.90;3.93;;;;;;;4.37;88.57;97007.16;5077669;28;20426;-86
2021/01/18 11:07:13;;;;;;;7.03;4.40;;;;;;;4.30;88.93;97001.09;5078801;28;20453;-86
2021/01/18 11:09:40;;;;;;;7.90;4.37;;;;;;;4.30;88.98;97003.75;5078339;28;20420;-85
2021/01/18 11:12:08;;;;;;;8.87;4.33;;;;;;;4.32;88.92;97000.63;5078469;28;20433;-85
2021/01/18 11:14:35;;;;;;;5.47;3.53;;;;;;;4.28;89.07;97000.84;5078190;28;20438;-86
2021/01/18 11:17:04;;;;;;;9.63;4.13;;;;;;;4.25;88.83;97001.06;5077704;28;20481;-86
2021/01/18 11:19:30;;;;;;;7.93;3.67;;;;;;;4.33;87.87;97005.47;5078330;28;20453;-86
2021/01/18 11:21:57;;;;;;;4.27;3.60;;;;;;;4.22;88.00;96988.69;5076788;28;20441;-86
2021/01/18 11:24:24;;;;;;;6.30;3.93;;;;;;;4.19;88.70;96992.31;5077340;28;20441;-85
2021/01/18 11:26:52;;;;;;;8.90;5.00;;;;;;;4.13;88.74;96988.91;5077753;28;20450;-86
2021/01/18 11:29:19;;;;;;;7.90;5.03;;;;;;;4.17;88.87;96984.78;5077770;28;20908;-86
2021/01/18 11:31:46;;;;;;;7.07;4.23;;;;;;;4.20;89.17;96970.47;5077450;28;20446;-87
2021/01/18 11:34:13;;;;;;;7.20;3.90;;;;;;;4.30;89.16;96970.97;5078003;28;20452;-87
2021/01/18 11:36:40;;;;;;;9.03;4.57;;;;;;;4.38;89.03;96963.22;5076851;28;20564;-86
2021/01/18 11:39:07;;;;;;;6.20;4.50;;;;;;;4.56;88.37;96968.09;5077598;28;20954;-86
2021/01/18 11:41:35;;;;;;;8.87;4.10;;;;;;;4.67;87.84;96970.78;5076311;28;20416;-85
2021/01/18 11:44:01;;;;;;;11.93;5.20;;;;;;;4.50;88.19;96973.44;5077904;28;20450;-86
2021/01/18 11:46:27;;;;;;;7.77;4.23;;;;;;;4.60;88.67;96968.59;5076828;28;20548;-86
2021/01/18 11:48:54;;;;;;;8.93;4.20;;;;;;;4.54;88.39;96984.59;5076820;28;20440;-86
2021/01/18 11:51:20;;;;;;;7.03;3.77;;;;;;;4.60;88.10;96981.97;5076677;28;20440;-86
2021/01/18 11:53:47;;;;;;;4.80;4.07;;;;;;;4.66;87.16;96967.38;5076813;28;20850;-85